Festina, Iowa
Current Conditions -  °F | °C
As of 7:35 AM on Friday 24 Oct 2014 (Local Time) from KDEH Reporting Station
Moderate Fog Moderate Fog  
Wind Chill: 10°   Ceiling: 200
Heat Index: 10°   Visibility: 0mi
Dew Point: 10°   Wind: 6mph
Humidity: 100%   Direction: 160°SSE
Pressure: 29.99"   Gusts: NA
Location:  43.1257°N, 91.9025°W
Report Text: KDEH 241235Z AUTO 16005KT M1/4SM FG OVC002 10/10 A2999 RMK AO2
Loading
Personal Weather Stations






























Interactive Weather Map
Tropical Storm Tracking
New forecast layout! Learn more

10-Day Weather Forecast

Advertisements
Track Severe Weather on mobile